Townsend, MT

12:12 AM MST on December 28, 2014 (GMT -0700)
Gallatin | Change Station
CLOSE
Current Station
Airport
Location: Bozeman,
Elevation: 4475 ft
Nearby Weather Stations
Active Advisory: Winter Weather Advisory

Elev 4475 ft 45.79 °N, 111.16 °W | Updated 8 minutes ago

Overcast
Overcast
21 °F
Feels Like 15 °F
N
5
Wind Variable Wind from East

Today
High -- | Low -- °F
--% Chance of Precip.
Yesterday
High -- | Low -- °F
Precip. -- in
8:08 AM 4:46 PM
Waxing Crescent, 45% visible
Pressure 29.87 in
Visibility 1.2 miles
Clouds Overcast 2000 ft
Windchill 15 °F
Dew Point 18 °F
Humidity 88%
Rainfall 0.00 in
Snow Depth Not available.
UV 0 out of 12
Pollen .10 out of 12
Air Quality Not available.
Flu Activity Not available.
SPECI KBZN 280704Z AUTO 09004KT 1 1/4SM -SN BR OVC020 M06/M08 A2987 RMK AO2 P0000 T10611078 $

More Conditions Fewer Conditions

Pressure 29.87 in
Visibility 1.2 miles
Clouds Overcast 2000 ft
Windchill 15 °F
Dew Point 18 °F
Humidity 88%
Rainfall 0.00 in
Snow Depth Not available.
UV 0 out of 12
Pollen .10 out of 12
Air Quality Not available.
Flu Activity Not available.
SPECI KBZN 280704Z AUTO 09004KT 1 1/4SM -SN BR OVC020 M06/M08 A2987 RMK AO2 P0000 T10611078 $

More Conditions Fewer Conditions

10-Day Weather Forecast

Almanac

Astronomy

Dec. 28, 2014 Rise Set
Actual Time
Civil Twilight
Nautical Twilight
Astronomical Twilight
Moon
Length of Visible Light
Length of Day
Tomorrow will be .
, % of the Moon is Illuminated

Today's Extremes

State Highs State Lows

Community

WunderPhotos

Upload Photos

1,781,209 photos uploaded!

WunderBlogs® & News

Nearby

Air Quality

  Air Quality AQ Index Pollutant
Not available.

Snow Depth

Station Depth Elevation

Earthquake Activity

City Distance Mag. Time & Date
Minimum magnitude displayed is 2.5.

Coastal Water Temperatures

Place Temperature

Nearby Weather Stations